Time;durP1;ratioP1;P1;durP2;ratioP2;P2;SDS_P1;SDS_P2;PMS_P1;PMS_P2;Temp;Humidity;BMP_temperature;BMP_pressure;BME280_temperature;BME280_humidity;BME280_pressure;Samples;Min_cycle;Max_cycle;Signal;HPM_P1;HPM_P2
2022/04/06 02:02:21;;;;;;;20.27;5.40;;;;;;;-145.18;100.00;46685.78;5430540;23;20788;-71
2022/04/06 02:04:47;;;;;;;21.23;4.57;;;;;;;-145.18;100.00;46691.66;5009451;28;20401;-70
2022/04/06 02:07:15;;;;;;;12.23;3.27;;;;;;;-145.18;100.00;46689.69;5012146;28;20307;-71
2022/04/06 02:09:41;;;;;;;19.77;4.80;;;;;;;-145.18;100.00;46701.41;5012586;28;20102;-71
2022/04/06 02:12:08;;;;;;;12.30;3.17;;;;;;;-145.18;100.00;46697.50;5012010;28;20272;-70
2022/04/06 02:14:34;;;;;;;16.93;4.47;;;;;;;-145.18;100.00;46689.69;5012368;28;20033;-71
2022/04/06 02:17:01;;;;;;;16.90;4.17;;;;;;;-145.18;100.00;46697.50;5012010;28;20267;-71
2022/04/06 02:19:26;;;;;;;19.97;3.80;;;;;;;-145.18;100.00;46697.50;5012566;28;20387;-72
2022/04/06 02:21:52;;;;;;;14.40;3.80;;;;;;;-145.18;100.00;46707.28;5012098;28;20274;-70
2022/04/06 02:24:18;;;;;;;16.70;3.63;;;;;;;-145.18;100.00;46699.47;5012205;28;20538;-70
2022/04/06 02:26:44;;;;;;;22.07;4.17;;;;;;;-145.18;100.00;46711.19;5010954;28;20410;-70
2022/04/06 02:29:09;;;;;;;18.47;3.50;;;;;;;-145.18;100.00;46701.41;5011983;28;20271;-70
2022/04/06 02:31:35;;;;;;;16.90;2.83;;;;;;;-145.18;100.00;46715.09;5012313;28;20100;-70
2022/04/06 02:34:01;;;;;;;15.13;3.67;;;;;;;-145.18;100.00;46711.19;5011582;28;20045;-70
2022/04/06 02:36:26;;;;;;;17.90;3.80;;;;;;;-145.18;100.00;46711.19;5012272;28;20402;-70
2022/04/06 02:38:52;;;;;;;13.87;3.07;;;;;;;-145.18;100.00;46715.09;5011236;28;20029;-70
2022/04/06 02:41:17;;;;;;;14.10;3.30;;;;;;;-145.18;100.00;46717.03;5012143;28;20038;-70
2022/04/06 02:43:43;;;;;;;12.60;4.27;;;;;;;-145.18;100.00;46715.09;5011674;28;20109;-70
2022/04/06 02:46:08;;;;;;;16.60;3.60;;;;;;;-145.18;100.00;46719.00;5012090;28;20148;-70
2022/04/06 02:48:34;;;;;;;12.33;3.17;;;;;;;-145.18;100.00;46719.00;5011703;28;20244;-70
2022/04/06 02:50:59;;;;;;;11.13;2.70;;;;;;;-145.18;100.00;46717.03;5011820;28;20057;-70
2022/04/06 02:53:25;;;;;;;13.27;2.73;;;;;;;-145.18;100.00;46719.00;5011623;28;20037;-70
2022/04/06 02:55:50;;;;;;;17.20;2.90;;;;;;;-145.18;100.00;46722.91;5010851;28;20167;-70
2022/04/06 02:58:16;;;;;;;20.57;3.30;;;;;;;-145.18;100.00;46720.94;5011352;28;20038;-70
2022/04/06 03:00:41;;;;;;;15.37;3.90;;;;;;;-145.18;100.00;46722.91;5011700;28;20058;-70
2022/04/06 03:03:07;;;;;;;12.13;3.60;;;;;;;-145.18;100.00;46719.00;5011227;28;20438;-70
2022/04/06 03:05:32;;;;;;;14.43;3.40;;;;;;;-145.18;100.00;46724.84;5011820;28;20034;-70
2022/04/06 03:07:58;;;;;;;9.43;2.70;;;;;;;-145.18;100.00;46722.91;5011354;28;20022;-70
2022/04/06 03:10:23;;;;;;;9.97;2.17;;;;;;;-145.18;100.00;46726.81;5011625;28;20497;-70
2022/04/06 03:12:49;;;;;;;8.73;3.00;;;;;;;-145.18;100.00;46724.84;5011129;28;20022;-70
2022/04/06 03:15:14;;;;;;;13.07;2.40;;;;;;;-145.18;100.00;46722.91;5011380;28;20394;-70
2022/04/06 03:17:40;;;;;;;11.37;2.63;;;;;;;-145.18;100.00;46724.84;5011107;28;20038;-70
2022/04/06 03:20:10;;;;;;;11.60;2.90;;;;;;;-145.18;100.00;46724.84;5011275;28;20030;-70
2022/04/06 03:22:35;;;;;;;10.10;2.43;;;;;;;-145.18;100.00;46722.91;5010668;28;20391;-70
2022/04/06 03:25:01;;;;;;;9.17;2.07;;;;;;;-145.18;100.00;46722.91;5011492;28;20267;-70
2022/04/06 03:27:26;;;;;;;13.33;2.13;;;;;;;-145.18;100.00;46722.91;5011083;28;20030;-70
2022/04/06 03:29:52;;;;;;;7.10;1.70;;;;;;;-145.18;100.00;46711.19;5011513;28;20026;-70
2022/04/06 03:32:17;;;;;;;10.53;2.33;;;;;;;-145.18;100.00;46703.38;4993227;28;20030;-70
2022/04/06 03:34:43;;;;;;;12.00;2.50;;;;;;;-145.18;100.00;46703.38;5011126;28;20069;-70
2022/04/06 03:37:08;;;;;;;11.93;3.33;;;;;;;-145.18;100.00;46713.13;5010872;28;20120;-70
2022/04/06 03:39:34;;;;;;;9.87;2.53;;;;;;;-145.18;100.00;46697.50;5011347;28;20675;-70
2022/04/06 03:42:00;;;;;;;11.13;2.03;;;;;;;-145.18;100.00;46701.41;5011204;28;20037;-70
2022/04/06 03:44:25;;;;;;;11.17;2.17;;;;;;;-145.18;100.00;46701.41;5010854;28;20038;-70
2022/04/06 03:46:50;;;;;;;7.97;1.90;;;;;;;-145.18;100.00;46697.50;5010991;28;20052;-70
2022/04/06 03:49:16;;;;;;;6.37;1.73;;;;;;;-145.18;100.00;46695.56;5010533;28;20482;-70
2022/04/06 03:51:44;;;;;;;15.83;2.93;;;;;;;-145.18;100.00;46697.50;5011094;28;20044;-70
2022/04/06 03:54:09;;;;;;;9.60;2.10;;;;;;;-145.18;100.00;46697.50;5010493;28;20030;-70
2022/04/06 03:56:34;;;;;;;11.43;2.70;;;;;;;-145.18;100.00;46697.50;4993088;28;20295;-70
2022/04/06 03:59:00;;;;;;;12.23;2.63;;;;;;;-145.18;100.00;46701.41;5010432;28;20052;-70
2022/04/06 04:01:25;;;;;;;10.13;2.13;;;;;;;-145.18;100.00;46695.56;5011009;28;20505;-70
2022/04/06 04:03:51;;;;;;;11.10;2.30;;;;;;;-145.18;100.00;46697.50;5010342;28;20058;-69
2022/04/06 04:06:16;;;;;;;14.73;2.67;;;;;;;-145.18;100.00;46699.47;5010579;28;20164;-70
2022/04/06 04:08:41;;;;;;;12.93;2.57;;;;;;;-145.18;100.00;46703.38;5010347;28;20660;-69
2022/04/06 04:11:08;;;;;;;14.33;2.50;;;;;;;-145.18;100.00;46701.41;4993126;28;20113;-70
2022/04/06 04:13:33;;;;;;;15.40;2.30;;;;;;;-145.18;100.00;46697.50;5010501;28;20030;-69
2022/04/06 04:15:59;;;;;;;11.43;2.07;;;;;;;-145.18;100.00;46703.38;4993027;28;20297;-70
2022/04/06 04:18:24;;;;;;;13.00;2.10;;;;;;;-145.18;100.00;46701.41;5010544;28;20041;-70
2022/04/06 04:21:31;;;;;;;14.63;2.37;;;;;;;-145.18;100.00;46703.38;5010519;28;20144;-70
2022/04/06 04:23:35;;;;;;;12.03;2.77;;;;;;;-145.18;100.00;46707.28;5010178;28;20044;-70
2022/04/06 04:26:00;;;;;;;12.33;2.90;;;;;;;-145.18;100.00;46703.38;5010622;28;20275;-70
2022/04/06 04:28:26;;;;;;;7.40;2.47;;;;;;;-145.18;100.00;46701.41;5010312;28;20112;-70
2022/04/06 04:30:51;;;;;;;17.77;2.70;;;;;;;-145.18;100.00;46713.13;5010581;28;20040;-70
2022/04/06 04:33:16;;;;;;;14.23;3.33;;;;;;;-145.18;100.00;46717.03;5010060;28;20478;-70
2022/04/06 04:35:42;;;;;;;11.40;3.83;;;;;;;-145.18;100.00;46719.00;4992674;28;20140;-70
2022/04/06 04:38:07;;;;;;;17.03;3.73;;;;;;;-145.18;100.00;46724.84;5010020;28;20116;-70
2022/04/06 04:40:32;;;;;;;22.13;3.17;;;;;;;-145.18;100.00;46720.94;4992849;28;20038;-70
2022/04/06 04:42:59;;;;;;;10.93;3.10;;;;;;;-145.18;100.00;46726.81;5010109;28;20026;-70
2022/04/06 04:45:24;;;;;;;16.17;3.43;;;;;;;-145.18;100.00;46724.84;5010511;28;20482;-70
2022/04/06 04:47:49;;;;;;;12.57;3.80;;;;;;;-145.18;100.00;46728.75;5009970;28;20306;-70
2022/04/06 04:50:19;;;;;;;21.30;4.10;;;;;;;-145.18;100.00;46732.66;5009888;28;20140;-70
2022/04/06 04:52:45;;;;;;;19.07;3.77;;;;;;;-145.18;100.00;46726.81;5005675;28;20029;-70
2022/04/06 04:55:10;;;;;;;20.60;4.13;;;;;;;-145.18;100.00;46724.84;5021851;28;20653;-70
2022/04/06 04:57:35;;;;;;;19.57;4.40;;;;;;;-145.18;100.00;46724.84;5020907;28;20117;-70
2022/04/06 05:00:01;;;;;;;17.47;4.63;;;;;;;-145.18;100.00;46717.03;5012338;28;20091;-70
2022/04/06 05:02:26;;;;;;;20.00;5.00;;;;;;;-145.18;100.00;46717.03;5012197;28;20089;-70
2022/04/06 05:04:51;;;;;;;16.77;4.33;;;;;;;-145.18;100.00;46717.03;5013979;28;20038;-70
2022/04/06 05:07:17;;;;;;;18.40;5.20;;;;;;;-145.18;100.00;46715.09;5013268;28;20486;-70
2022/04/06 05:09:42;;;;;;;21.27;5.47;;;;;;;-145.18;100.00;46717.03;5013421;28;20449;-70
2022/04/06 05:12:08;;;;;;;25.43;6.13;;;;;;;-145.18;100.00;46717.03;4996421;28;20037;-70
2022/04/06 05:14:33;;;;;;;20.27;5.67;;;;;;;-145.18;100.00;46713.13;5013459;28;20030;-70
2022/04/06 05:17:00;;;;;;;22.23;5.50;;;;;;;-145.18;100.00;46703.38;5013990;28;20688;-70
2022/04/06 05:19:25;;;;;;;22.63;5.37;;;;;;;-145.18;100.00;46707.28;5013330;28;20391;-70
2022/04/06 05:21:51;;;;;;;24.53;5.10;;;;;;;-145.18;100.00;46711.19;5013453;28;20275;-70
2022/04/06 05:24:16;;;;;;;26.17;6.40;;;;;;;-145.18;100.00;46713.13;4995606;28;20038;-71
2022/04/06 05:26:41;;;;;;;18.90;4.63;;;;;;;-145.18;100.00;46717.03;5013666;28;20061;-70
2022/04/06 05:29:07;;;;;;;19.00;4.83;;;;;;;-145.18;100.00;46711.19;4995440;28;20422;-70
2022/04/06 05:31:32;;;;;;;21.13;4.40;;;;;;;-145.18;100.00;46709.22;5013587;28;20053;-70
2022/04/06 05:33:59;;;;;;;16.83;4.30;;;;;;;-145.18;100.00;46715.09;5012871;28;20025;-70
2022/04/06 05:36:25;;;;;;;16.43;4.00;;;;;;;-145.18;100.00;46715.09;5013960;28;20041;-70
2022/04/06 05:38:50;;;;;;;14.97;3.60;;;;;;;-145.18;100.00;46715.09;5017096;28;20651;-70
2022/04/06 05:41:16;;;;;;;13.57;3.67;;;;;;;-145.18;100.00;46717.03;5015778;28;20066;-70
2022/04/06 05:43:41;;;;;;;22.67;4.40;;;;;;;-145.18;100.00;46717.03;5012922;28;20040;-70
2022/04/06 05:46:06;;;;;;;16.47;4.03;;;;;;;-145.18;100.00;46717.03;5012733;28;20445;-70
2022/04/06 05:48:32;;;;;;;22.50;3.60;;;;;;;-145.18;100.00;46717.03;5012811;28;20033;-70
2022/04/06 05:50:57;;;;;;;11.87;2.30;;;;;;;-145.18;100.00;46720.94;5013264;28;20478;-70
2022/04/06 05:53:22;;;;;;;14.03;2.83;;;;;;;-145.18;100.00;46722.91;5012471;28;20033;-70
2022/04/06 05:55:48;;;;;;;13.13;2.70;;;;;;;-145.18;100.00;46719.00;5013307;28;20048;-70
2022/04/06 05:58:14;;;;;;;20.20;2.93;;;;;;;-145.18;100.00;46720.94;5012212;28;20406;-70
2022/04/06 06:00:40;;;;;;;15.37;2.53;;;;;;;-145.18;100.00;46719.00;5013110;28;20064;-70
2022/04/06 06:03:06;;;;;;;14.00;2.83;;;;;;;-145.18;100.00;46724.84;4994262;28;20315;-70
2022/04/06 06:05:31;;;;;;;13.77;2.40;;;;;;;-145.18;100.00;46724.84;5012937;28;20057;-70
2022/04/06 06:07:57;;;;;;;11.47;2.10;;;;;;;-145.18;100.00;46719.00;5010669;28;20087;-70
2022/04/06 06:10:23;;;;;;;13.07;2.50;;;;;;;-145.18;100.00;46719.00;5012576;28;20505;-70
2022/04/06 06:12:48;;;;;;;14.57;2.87;;;;;;;-145.18;100.00;46722.91;5017663;28;20056;-70
2022/04/06 06:15:14;;;;;;;11.87;1.83;;;;;;;-145.18;100.00;46720.94;5011952;28;20826;-70
2022/04/06 06:17:40;;;;;;;20.73;2.20;;;;;;;-145.18;100.00;46717.03;5012186;28;20397;-70
2022/04/06 06:20:06;;;;;;;9.13;1.67;;;;;;;-145.18;100.00;46713.13;5012192;28;20030;-70
2022/04/06 06:22:32;;;;;;;7.60;1.97;;;;;;;-145.18;100.00;46695.56;5012283;28;20435;-70
2022/04/06 06:24:57;;;;;;;9.37;1.73;;;;;;;-145.18;100.00;46687.75;4994582;28;20326;-70
2022/04/06 06:27:24;;;;;;;14.57;1.83;;;;;;;-145.18;100.00;46672.13;5011959;28;20048;-70
2022/04/06 06:29:49;;;;;;;12.83;2.17;;;;;;;-145.18;100.00;46654.53;5012146;28;20038;-70
2022/04/06 06:32:15;;;;;;;8.13;2.00;;;;;;;-145.18;100.00;46660.41;4996400;28;20271;-70
2022/04/06 06:34:41;;;;;;;9.23;1.47;;;;;;;-145.18;100.00;46654.53;5024563;28;20402;-70
2022/04/06 06:37:07;;;;;;;10.17;2.23;;;;;;;-145.18;100.00;46642.81;5014872;28;20073;-70
2022/04/06 06:39:33;;;;;;;12.87;1.93;;;;;;;-145.18;100.00;46629.13;5010607;28;20362;-70
2022/04/06 06:41:58;;;;;;;8.70;1.30;;;;;;;-145.18;100.00;46582.25;5011322;28;20034;-70
2022/04/06 06:44:23;;;;;;;12.37;1.47;;;;;;;-145.18;100.00;46586.16;5011485;28;20045;-70
2022/04/06 06:46:49;;;;;;;10.30;1.23;;;;;;;-145.18;100.00;46582.25;5011879;28;20545;-70
2022/04/06 06:49:15;;;;;;;10.17;1.80;;;;;;;-145.18;100.00;46586.16;4993874;28;20034;-70
2022/04/06 06:51:41;;;;;;;8.67;1.83;;;;;;;-145.18;100.00;46590.06;4994306;28;20376;-70
2022/04/06 06:54:06;;;;;;;14.50;1.47;;;;;;;-145.18;100.00;46592.03;5011086;28;20318;-70
2022/04/06 06:56:32;;;;;;;12.73;2.60;;;;;;;-145.18;100.00;46592.03;5010783;28;20042;-70
2022/04/06 06:58:57;;;;;;;10.73;1.73;;;;;;;-145.18;100.00;46592.03;4992553;28;20033;-70
2022/04/06 07:01:23;;;;;;;9.33;1.33;;;;;;;-145.18;100.00;46601.78;5011346;28;20469;-70
2022/04/06 07:03:48;;;;;;;8.97;1.73;;;;;;;-145.18;100.00;46603.75;5011086;28;20141;-70
2022/04/06 07:06:14;;;;;;;8.17;1.90;;;;;;;-145.18;100.00;46605.69;5011208;28;20125;-70
2022/04/06 07:08:39;;;;;;;13.60;1.60;;;;;;;-145.18;100.00;46599.84;5011072;28;20029;-70
2022/04/06 07:11:05;;;;;;;6.13;1.30;;;;;;;-145.18;100.00;46601.78;5011185;28;20025;-70
2022/04/06 07:13:30;;;;;;;8.60;1.73;;;;;;;-145.18;100.00;46605.69;5011198;28;20106;-70
2022/04/06 07:15:55;;;;;;;11.37;2.47;;;;;;;-145.18;100.00;46595.94;5011424;28;20112;-70
2022/04/06 07:18:22;;;;;;;7.10;1.63;;;;;;;-145.18;100.00;46601.78;5011000;28;20037;-70
2022/04/06 07:20:48;;;;;;;9.37;1.50;;;;;;;-145.18;100.00;46601.78;5011323;28;20057;-70
2022/04/06 07:23:14;;;;;;;8.73;1.53;;;;;;;-145.18;100.00;46601.78;5010639;28;20299;-70
2022/04/06 07:25:42;;;;;;;6.20;1.30;;;;;;;-145.18;100.00;46601.78;5010627;28;20030;-70
2022/04/06 07:28:08;;;;;;;15.37;1.67;;;;;;;-145.18;100.00;46597.88;5010497;28;20471;-70
2022/04/06 07:30:34;;;;;;;14.13;1.77;;;;;;;-145.18;100.00;46592.03;5011181;28;20287;-70
2022/04/06 07:32:59;;;;;;;7.03;1.20;;;;;;;-145.18;100.00;46590.06;5010735;28;20038;-70
2022/04/06 07:35:25;;;;;;;13.77;1.97;;;;;;;-145.18;100.00;46595.94;4993375;28;20030;-70
2022/04/06 07:37:51;;;;;;;9.70;1.70;;;;;;;-145.18;100.00;46586.16;5010555;28;20416;-70
2022/04/06 07:40:19;;;;;;;7.53;1.90;;;;;;;-145.18;100.00;46599.84;5013427;28;20053;-70
2022/04/06 07:42:46;;;;;;;10.70;1.33;;;;;;;-145.18;100.00;46592.03;5025646;28;20309;-70
2022/04/06 07:45:14;;;;;;;6.40;1.33;;;;;;;-145.18;100.00;46595.94;5027071;28;20267;-70
2022/04/06 07:47:40;;;;;;;9.53;1.67;;;;;;;-145.18;100.00;46588.13;5030605;28;20266;-70
2022/04/06 07:50:07;;;;;;;10.33;1.90;;;;;;;-145.18;100.00;46586.16;5029361;28;20262;-70
2022/04/06 07:52:35;;;;;;;8.00;2.00;;;;;;;-145.18;100.00;46582.25;5030254;28;20394;-70
2022/04/06 07:55:00;;;;;;;12.43;2.60;;;;;;;-145.18;100.00;46584.22;5029916;28;20364;-70
2022/04/06 07:57:27;;;;;;;19.27;1.93;;;;;;;-145.18;100.00;46586.16;5030412;28;20818;-70
2022/04/06 07:59:54;;;;;;;15.13;2.60;;;;;;;-145.18;100.00;46572.50;5029650;28;20071;-70
2022/04/06 08:02:19;;;;;;;9.07;1.87;;;;;;;-145.18;100.00;46574.44;5029147;28;20357;-70
2022/04/06 08:04:44;;;;;;;10.50;2.03;;;;;;;-145.18;100.00;46572.50;5029969;28;20436;-70
2022/04/06 08:07:10;;;;;;;11.40;2.63;;;;;;;-145.18;100.00;46572.50;5030397;28;20063;-70
2022/04/06 08:09:35;;;;;;;10.67;2.30;;;;;;;-145.18;100.00;46566.63;5029109;28;20034;-70
2022/04/06 08:12:01;;;;;;;8.10;2.07;;;;;;;-145.18;100.00;46574.44;5012863;28;20137;-70
2022/04/06 08:14:30;;;;;;;10.80;2.70;;;;;;;-145.18;100.00;46570.53;5010288;28;20371;-70
2022/04/06 08:16:56;;;;;;;9.73;2.10;;;;;;;-145.18;100.00;46576.41;5009836;28;20034;-70
2022/04/06 08:19:26;;;;;;;9.57;1.90;;;;;;;-145.18;100.00;46582.25;5010220;28;20259;-70
2022/04/06 08:21:52;;;;;;;14.80;2.60;;;;;;;-145.18;100.00;46588.13;5010573;28;20295;-70
2022/04/06 08:24:18;;;;;;;13.20;2.30;;;;;;;-145.18;100.00;46597.88;5010132;28;20291;-70
2022/04/06 08:26:43;;;;;;;19.30;2.90;;;;;;;-145.18;100.00;46613.50;5010303;28;20937;-70
2022/04/06 08:29:08;;;;;;;8.27;2.63;;;;;;;-145.18;100.00;46644.78;5010038;28;20481;-70
2022/04/06 08:31:34;;;;;;;12.20;3.10;;;;;;;-145.18;100.00;46664.31;5006224;28;20088;-70
2022/04/06 08:33:59;;;;;;;8.60;2.40;;;;;;;-145.18;100.00;46674.06;5009848;28;20368;-70
2022/04/06 08:36:25;;;;;;;10.97;3.20;;;;;;;-145.18;100.00;46679.94;5006752;28;20041;-70
2022/04/06 08:38:50;;;;;;;16.43;3.03;;;;;;;-145.18;100.00;46685.78;5013894;28;20544;-70
2022/04/06 08:41:16;;;;;;;14.77;2.60;;;;;;;-145.18;100.00;46691.66;5014137;28;20030;-70
2022/04/06 08:43:42;;;;;;;13.57;3.27;;;;;;;-145.18;100.00;46695.56;5013850;28;20034;-70
2022/04/06 08:46:11;;;;;;;16.53;2.67;;;;;;;-145.18;100.00;46697.50;5014159;28;20286;-70
2022/04/06 08:48:38;;;;;;;9.57;2.83;;;;;;;-145.18;100.00;46697.50;4995765;28;20036;-70
2022/04/06 08:51:07;;;;;;;11.70;2.77;;;;;;;-145.18;100.00;46697.50;5013948;28;20279;-70
2022/04/06 08:53:34;;;;;;;14.53;3.87;;;;;;;-145.18;100.00;46697.50;5013620;28;20774;-70
2022/04/06 08:55:59;;;;;;;12.30;2.60;;;;;;;-145.18;100.00;46699.47;5013971;28;20290;-70
2022/04/06 08:58:24;;;;;;;15.27;3.03;;;;;;;-145.18;100.00;46699.47;5013275;28;20294;-70
2022/04/06 09:00:50;;;;;;;12.17;3.60;;;;;;;-145.18;100.00;46695.56;5013773;28;20171;-70
2022/04/06 09:03:16;;;;;;;12.93;2.90;;;;;;;-145.18;100.00;46693.59;5010051;28;20042;-70
2022/04/06 09:05:42;;;;;;;14.77;3.47;;;;;;;-145.18;100.00;46693.59;5013901;28;20565;-70
2022/04/06 09:08:08;;;;;;;14.43;4.20;;;;;;;-145.18;100.00;46693.59;5013366;28;20267;-70
2022/04/06 09:10:38;;;;;;;13.63;2.87;;;;;;;-145.18;100.00;46695.56;5013628;28;20037;-70
2022/04/06 09:13:14;;;;;;;18.37;3.97;;;;;;;-145.18;100.00;46693.59;5013601;28;20041;-70
2022/04/06 09:15:41;;;;;;;10.83;3.20;;;;;;;-145.18;100.00;46689.69;5013571;28;20291;-70
2022/04/06 09:18:07;;;;;;;20.77;4.03;;;;;;;-145.18;100.00;46689.69;5013327;28;20287;-70
2022/04/06 09:20:32;;;;;;;27.20;4.23;;;;;;;-145.18;100.00;46689.69;5013328;28;20272;-70
2022/04/06 09:23:04;;;;;;;16.90;3.80;;;;;;;-145.18;100.00;46683.84;5013384;28;20034;-69
2022/04/06 09:25:37;;;;;;;17.10;3.67;;;;;;;-145.18;100.00;46681.88;5012761;28;20152;-68
2022/04/06 09:28:16;;;;;;;14.97;3.80;;;;;;;-145.18;100.00;46679.94;5013351;28;20743;-68
2022/04/06 09:30:43;;;;;;;14.57;3.30;;;;;;;-145.18;100.00;46674.06;5013495;28;20336;-69
2022/04/06 09:33:18;;;;;;;23.90;5.63;;;;;;;-145.18;100.00;46672.13;5015776;28;20639;-68
2022/04/06 09:35:43;;;;;;;15.03;3.67;;;;;;;-145.18;100.00;46666.25;5023683;28;20330;-68
2022/04/06 09:38:22;;;;;;;11.30;3.43;;;;;;;-145.18;100.00;46668.22;5013114;28;20307;-68
2022/04/06 09:40:49;;;;;;;15.67;4.77;;;;;;;-145.18;100.00;46670.16;5013402;28;20057;-69
2022/04/06 09:43:35;;;;;;;18.73;5.67;;;;;;;-145.18;100.00;46658.44;5012785;28;20325;-68
2022/04/06 09:49:21;;;;;;;18.53;4.13;;;;;;;-145.18;100.00;46654.53;4986729;28;20078;-68
2022/04/06 09:51:50;;;;;;;13.77;5.03;;;;;;;-145.18;100.00;46658.44;5013267;28;20267;-68
2022/04/06 09:54:15;;;;;;;14.47;3.60;;;;;;;-145.18;100.00;46658.44;5012301;28;20299;-68
2022/04/06 09:56:42;;;;;;;10.67;4.23;;;;;;;-145.18;100.00;46652.59;5012795;28;20325;-68
2022/04/06 09:59:09;;;;;;;23.60;5.83;;;;;;;-145.18;100.00;46652.59;4994899;28;20077;-68
2022/04/06 10:01:45;;;;;;;11.53;3.57;;;;;;;-145.18;100.00;46652.59;4995254;28;20623;-68
2022/04/06 10:04:11;;;;;;;;;;;;;;;-145.18;100.00;46660.41;5012200;28;20349;-68
2022/04/06 10:06:38;;;;;;;9.88;4.22;;;;;;;-145.18;100.00;46650.63;5012879;28;19949;-68
2022/04/06 10:09:07;;;;;;;22.67;5.83;;;;;;;-145.18;100.00;46650.63;5012295;28;20029;-68
2022/04/06 10:11:38;;;;;;;21.33;5.93;;;;;;;-145.18;100.00;46652.59;5012540;28;20276;-68
2022/04/06 10:14:05;;;;;;;23.23;6.43;;;;;;;-145.18;100.00;46650.63;5012376;28;20790;-68
2022/04/06 10:16:36;;;;;;;10.30;5.90;;;;;;;-145.18;100.00;46648.69;5012348;28;20357;-68
2022/04/06 10:19:05;;;;;;;20.83;5.47;;;;;;;-145.18;100.00;46650.63;5012096;28;20271;-69
2022/04/06 10:21:43;;;;;;;18.60;5.63;;;;;;;-145.18;100.00;46644.78;5012167;28;20275;-69
2022/04/06 10:24:20;;;;;;;11.67;4.80;;;;;;;-145.18;100.00;46648.69;5011526;28;20267;-68
2022/04/06 10:26:46;;;;;;;19.30;6.93;;;;;;;-145.18;100.00;46648.69;5012634;28;20279;-69
2022/04/06 10:29:11;;;;;;;15.97;5.73;;;;;;;-145.18;100.00;46648.69;5011576;28;20279;-69
2022/04/06 10:31:36;;;;;;;18.77;7.60;;;;;;;-145.18;100.00;46646.72;5012514;28;20034;-69
2022/04/06 10:34:21;;;;;;;18.47;8.30;;;;;;;-145.18;100.00;46644.78;5011902;28;20479;-69
2022/04/06 10:37:15;;;;;;;27.13;8.30;;;;;;;-145.18;100.00;46644.78;5012348;28;20030;-69
2022/04/06 10:39:57;;;;;;;23.47;9.83;;;;;;;-145.18;100.00;46646.72;5013112;28;20284;-69
2022/04/06 10:42:37;;;;;;;19.43;10.20;;;;;;;-145.18;100.00;46644.78;5011997;28;20280;-69
2022/04/06 10:45:24;;;;;;;19.33;9.27;;;;;;;-145.18;100.00;46644.78;5010614;28;20274;-69
2022/04/06 10:48:13;;;;;;;22.13;10.07;;;;;;;-145.18;100.00;46642.81;5011878;28;20267;-69
2022/04/06 10:50:40;;;;;;;22.20;8.07;;;;;;;-145.18;100.00;46644.78;5011426;28;20699;-69
2022/04/06 10:53:20;;;;;;;23.20;9.10;;;;;;;-145.18;100.00;46638.91;5011578;28;20400;-69
2022/04/06 10:56:22;;;;;;;25.60;9.17;;;;;;;-145.18;100.00;46642.81;5017500;28;20291;-69
2022/04/06 10:58:53;;;;;;;18.33;8.23;;;;;;;-145.18;100.00;46638.91;4930119;29;20278;-69
2022/04/06 11:01:25;;;;;;;25.60;8.40;;;;;;;-145.18;100.00;46644.78;4979296;28;20375;-69
2022/04/06 11:04:03;;;;;;;19.57;7.50;;;;;;;-145.18;100.00;46644.78;4993554;28;20291;-69
2022/04/06 11:06:56;;;;;;;28.87;8.40;;;;;;;-145.18;100.00;46636.94;5011022;28;20287;-69
2022/04/06 11:12:19;;;;;;;20.20;8.13;;;;;;;-145.18;100.00;46644.78;5011365;28;20413;-69
2022/04/06 11:14:47;;;;;;;17.33;7.27;;;;;;;-145.18;100.00;46640.88;5011015;28;20295;-69
2022/04/06 11:17:44;;;;;;;18.57;7.20;;;;;;;-145.18;100.00;46644.78;5011518;28;20280;-69
2022/04/06 11:20:19;;;;;;;;;;;;;;;-145.18;100.00;46646.72;5011425;28;20322;-69
2022/04/06 11:22:53;;;;;;;25.67;6.67;;;;;;;-145.18;100.00;46644.78;4993896;28;19920;-69
2022/04/06 11:25:20;;;;;;;15.70;5.40;;;;;;;-145.18;100.00;46646.72;5011235;28;20287;-69
2022/04/06 11:27:47;;;;;;;14.50;5.53;;;;;;;-145.18;100.00;46652.59;4993976;28;20663;-69
2022/04/06 11:30:17;;;;;;;14.73;5.20;;;;;;;-145.18;100.00;46648.69;5010872;28;20760;-69
2022/04/06 11:32:56;;;;;;;12.57;5.30;;;;;;;-145.18;100.00;46648.69;5011189;28;20263;-69
2022/04/06 11:35:34;;;;;;;11.17;4.23;;;;;;;-145.18;100.00;46646.72;5010402;28;20297;-69
2022/04/06 11:38:00;;;;;;;15.30;5.30;;;;;;;-145.18;100.00;46660.41;5011619;28;20268;-69
2022/04/06 11:40:27;;;;;;;13.33;4.83;;;;;;;-145.18;100.00;46650.63;5010358;28;20282;-69
2022/04/06 11:42:56;;;;;;;20.37;4.73;;;;;;;-145.18;100.00;46660.41;5011303;28;20256;-69
2022/04/06 11:45:29;;;;;;;11.43;4.67;;;;;;;-145.18;100.00;46660.41;5010333;28;20291;-69
2022/04/06 11:48:00;;;;;;;12.27;5.70;;;;;;;-145.18;100.00;46662.34;5010965;28;20286;-69
2022/04/06 11:50:30;;;;;;;15.67;5.93;;;;;;;-145.18;100.00;46672.13;5010404;28;20727;-69
2022/04/06 11:53:00;;;;;;;21.80;7.40;;;;;;;-145.18;100.00;46670.16;5010916;28;20270;-69
2022/04/06 11:55:47;;;;;;;16.23;7.20;;;;;;;-145.18;100.00;46664.31;5010313;28;20295;-69
2022/04/06 11:58:32;;;;;;;15.50;7.73;;;;;;;-145.18;100.00;46676.03;5010777;28;20267;-70
2022/04/06 12:01:06;;;;;;;15.00;7.77;;;;;;;-145.18;100.00;46670.16;5010470;28;20692;-70
2022/04/06 12:03:40;;;;;;;15.27;8.13;;;;;;;-145.18;100.00;46672.13;4992932;28;20295;-70
2022/04/06 12:06:09;;;;;;;15.90;8.30;;;;;;;-145.18;100.00;46668.22;5010639;28;20267;-70
2022/04/06 12:08:35;;;;;;;15.47;8.93;;;;;;;-145.18;100.00;46672.13;4992925;28;20264;-70
2022/04/06 12:11:02;;;;;;;22.97;9.17;;;;;;;-145.18;100.00;46674.06;5009304;28;20275;-71
2022/04/06 12:13:29;;;;;;;15.27;8.60;;;;;;;-145.18;100.00;46676.03;4993118;28;20259;-71
2022/04/06 12:15:56;;;;;;;19.53;8.53;;;;;;;-145.18;100.00;46677.97;5010218;28;20286;-71
2022/04/06 12:18:23;;;;;;;19.43;8.60;;;;;;;-145.18;100.00;46676.03;4993196;28;20358;-71
2022/04/06 12:20:50;;;;;;;20.00;8.80;;;;;;;-145.18;100.00;46674.06;5010287;28;20671;-70
2022/04/06 12:23:18;;;;;;;19.37;8.83;;;;;;;-145.18;100.00;46670.16;5010352;28;20807;-69
2022/04/06 12:25:44;;;;;;;12.43;7.23;;;;;;;-145.18;100.00;46672.13;5010390;28;20267;-69
2022/04/06 12:28:23;;;;;;;22.93;7.37;;;;;;;-145.18;100.00;46676.03;5010619;28;20272;-69
2022/04/06 12:30:56;;;;;;;16.67;7.97;;;;;;;-145.18;100.00;46670.16;5010132;28;20275;-69
2022/04/06 12:33:39;;;;;;;12.60;6.80;;;;;;;-145.18;100.00;46676.03;5010535;28;20748;-69
2022/04/06 12:36:16;;;;;;;14.70;7.50;;;;;;;-145.18;100.00;46670.16;5010112;28;21000;-69
2022/04/06 12:39:01;;;;;;;12.77;6.90;;;;;;;-145.18;100.00;46676.03;5010815;28;20620;-69
2022/04/06 12:41:31;;;;;;;9.40;6.72;;;;;;;-145.18;100.00;46677.97;5010583;28;20271;-69
2022/04/06 12:43:58;;;;;;;9.47;7.07;;;;;;;-145.18;100.00;46681.88;5010326;28;20026;-68
2022/04/06 12:46:44;;;;;;;11.10;6.57;;;;;;;-145.18;100.00;46677.97;5010325;28;20287;-69
2022/04/06 12:49:26;;;;;;;11.15;5.78;;;;;;;-145.18;100.00;46687.75;5010001;28;20299;-69
2022/04/06 12:52:03;;;;;;;13.10;6.63;;;;;;;-145.18;100.00;46681.88;5010406;28;20052;-69
2022/04/06 12:54:32;;;;;;;11.67;5.50;;;;;;;-145.18;100.00;46689.69;5009913;28;20602;-69
2022/04/06 12:57:03;;;;;;;8.40;5.33;;;;;;;-145.18;100.00;46687.75;5010335;28;20307;-69
2022/04/06 12:59:57;;;;;;;10.03;5.00;;;;;;;-145.18;100.00;46689.69;5009767;28;20294;-69
2022/04/06 13:02:48;;;;;;;10.40;5.10;;;;;;;-145.18;100.00;46689.69;5009978;28;20267;-69
2022/04/06 13:05:16;;;;;;;6.93;5.27;;;;;;;-145.18;100.00;46695.56;5010105;28;20268;-69
2022/04/06 13:07:43;;;;;;;14.63;4.80;;;;;;;-145.18;100.00;46689.69;5010282;28;20329;-69
2022/04/06 13:10:10;;;;;;;7.27;5.23;;;;;;;-145.18;100.00;46695.56;5009635;28;20268;-69
2022/04/06 13:12:37;;;;;;;7.43;4.83;;;;;;;-145.18;100.00;46689.69;5009958;28;20263;-69
2022/04/06 13:15:04;;;;;;;8.27;4.20;;;;;;;-145.18;100.00;46691.66;5009824;28;20295;-69
2022/04/06 13:17:30;;;;;;;8.00;3.87;;;;;;;-145.18;100.00;46691.66;5010072;28;20299;-69